createdAt,value
2018-04-12T00:00:22.270Z,83.20
2018-04-12T00:02:49.802Z,83.80
2018-04-12T00:05:18.111Z,84.10
2018-04-12T00:07:45.638Z,84.10
2018-04-12T00:10:13.184Z,84.50
2018-04-12T00:12:40.717Z,84.10
2018-04-12T00:15:08.255Z,84.60
2018-04-12T00:17:35.821Z,84.40
2018-04-12T00:20:03.345Z,84.20
2018-04-12T00:22:30.881Z,84.60
2018-04-12T00:24:59.166Z,84.40
2018-04-12T00:27:27.484Z,84.30
2018-04-12T00:29:55.036Z,84.20
2018-04-12T00:32:22.595Z,85.00
2018-04-12T00:34:50.125Z,85.50
2018-04-12T00:37:17.694Z,86.00
2018-04-12T00:39:45.225Z,85.70
2018-04-12T00:42:13.528Z,86.40
2018-04-12T00:44:41.083Z,86.30
2018-04-12T00:47:09.385Z,85.90
2018-04-12T00:49:36.928Z,85.80
2018-04-12T00:52:04.460Z,86.40
2018-04-12T00:54:32.021Z,86.60
2018-04-12T00:56:59.548Z,86.40
2018-04-12T00:59:27.096Z,87.20
2018-04-12T01:01:54.634Z,86.80
2018-04-12T01:04:22.190Z,88.00
2018-04-12T01:06:49.737Z,87.40
2018-04-12T01:09:17.292Z,87.70
2018-04-12T01:11:44.837Z,88.30
2018-04-12T01:14:13.185Z,88.30
2018-04-12T01:16:41.494Z,88.20
2018-04-12T01:19:09.015Z,88.20
2018-04-12T01:21:36.587Z,88.10
2018-04-12T01:24:04.884Z,87.80
2018-04-12T01:26:32.428Z,87.80
2018-04-12T01:28:59.967Z,88.20
2018-04-12T01:31:27.515Z,88.60
2018-04-12T01:33:55.821Z,88.20
2018-04-12T01:36:23.376Z,88.20
2018-04-12T01:38:50.905Z,88.30
2018-04-12T01:41:18.448Z,87.60
2018-04-12T01:43:45.972Z,88.80
2018-04-12T01:46:13.525Z,87.80
2018-04-12T01:48:41.075Z,87.40
2018-04-12T01:51:08.601Z,88.70
2018-04-12T01:53:36.145Z,88.10
2018-04-12T01:56:03.671Z,88.00
2018-04-12T01:58:31.212Z,88.00
2018-04-12T02:00:58.732Z,88.70
2018-04-12T02:03:26.294Z,89.50
2018-04-12T02:05:53.838Z,89.20
2018-04-12T02:08:21.397Z,88.70
2018-04-12T02:10:48.919Z,89.80
2018-04-12T02:13:16.450Z,89.20
2018-04-12T02:15:43.983Z,88.60
2018-04-12T02:18:12.296Z,88.70
2018-04-12T02:20:39.836Z,88.70
2018-04-12T02:23:07.392Z,87.80
2018-04-12T02:25:35.684Z,88.80
2018-04-12T02:28:03.246Z,88.70
2018-04-12T02:30:30.774Z,88.40
2018-04-12T02:32:58.313Z,87.70
2018-04-12T02:35:27.538Z,89.80
2018-04-12T02:37:55.059Z,89.80
2018-04-12T02:40:22.603Z,90.10
2018-04-12T02:42:50.122Z,90.50
2018-04-12T02:45:17.664Z,90.20
2018-04-12T02:47:45.205Z,90.10
2018-04-12T02:50:13.519Z,90.40
2018-04-12T02:52:41.056Z,90.40
2018-04-12T02:55:08.640Z,90.20
2018-04-12T02:57:36.175Z,90.30
2018-04-12T03:00:03.939Z,90.10
2018-04-12T03:02:31.484Z,90.10
2018-04-12T03:04:59.767Z,90.30
2018-04-12T03:07:27.321Z,90.30
2018-04-12T03:09:54.849Z,90.40
2018-04-12T03:12:22.386Z,90.30
2018-04-12T03:14:49.947Z,90.20
2018-04-12T03:17:17.491Z,89.30
2018-04-12T03:19:45.027Z,88.80
2018-04-12T03:22:12.586Z,89.20
2018-04-12T03:24:40.116Z,88.60
2018-04-12T03:27:08.416Z,90.00
2018-04-12T03:29:35.940Z,89.90
2018-04-12T03:32:04.248Z,90.10
2018-04-12T03:34:31.785Z,90.10
2018-04-12T03:37:00.102Z,90.00
2018-04-12T03:39:27.624Z,90.00
2018-04-12T03:41:56.009Z,90.10
2018-04-12T03:44:23.532Z,90.00
2018-04-12T03:46:51.072Z,90.40
2018-04-12T03:49:18.605Z,90.10
2018-04-12T03:51:46.180Z,90.20
2018-04-12T03:54:13.753Z,90.20
2018-04-12T03:56:42.105Z,90.00
2018-04-12T03:59:09.661Z,90.00
2018-04-12T04:01:37.185Z,90.20
2018-04-12T04:04:04.737Z,90.10
2018-04-12T04:06:32.298Z,89.50
2018-04-12T04:08:59.812Z,89.90
2018-04-12T04:11:27.371Z,90.10
2018-04-12T04:13:54.922Z,90.10
2018-04-12T04:16:34.270Z,90.10
2018-04-12T04:19:13.475Z,89.30
2018-04-12T04:21:40.991Z,90.00
2018-04-12T04:24:08.546Z,90.10
2018-04-12T04:26:36.858Z,90.00
2018-04-12T04:29:05.188Z,89.70
2018-04-12T04:31:32.716Z,89.70
2018-04-12T04:34:00.283Z,89.90
2018-04-12T04:36:27.860Z,89.80
2018-04-12T04:38:55.410Z,87.90
2018-04-12T04:41:22.965Z,87.90
2018-04-12T04:43:50.535Z,88.00
2018-04-12T04:46:18.996Z,87.50
2018-04-12T04:48:46.528Z,88.30
2018-04-12T04:51:14.087Z,87.30
2018-04-12T04:53:41.648Z,87.10
2018-04-12T04:56:09.500Z,86.90
2018-04-12T04:58:37.015Z,86.40
2018-04-12T05:01:04.731Z,86.10
2018-04-12T05:03:33.011Z,85.80
2018-04-12T05:06:00.589Z,85.10
2018-04-12T05:08:28.120Z,84.20
2018-04-12T05:10:55.662Z,83.30
2018-04-12T05:13:23.208Z,83.40
2018-04-12T05:15:50.728Z,83.40
2018-04-12T05:18:18.272Z,83.50
2018-04-12T05:20:45.805Z,83.50
2018-04-12T05:23:13.349Z,83.60
2018-04-12T05:25:41.577Z,83.50
2018-04-12T05:28:09.171Z,83.50
2018-04-12T05:30:36.733Z,82.80
2018-04-12T05:33:04.296Z,82.40
2018-04-12T05:35:31.840Z,81.80
2018-04-12T05:37:59.396Z,81.80
2018-04-12T05:40:26.948Z,81.50
2018-04-12T05:42:54.504Z,80.30
2018-04-12T05:45:22.797Z,79.40
2018-04-12T05:47:50.363Z,79.30
2018-04-12T05:50:17.888Z,78.80
2018-04-12T05:52:45.496Z,79.30
2018-04-12T05:55:13.133Z,78.50
2018-04-12T05:57:40.664Z,77.70
2018-04-12T06:00:09.007Z,78.30
2018-04-12T06:02:36.550Z,78.20
2018-04-12T06:05:04.109Z,77.70
2018-04-12T06:07:31.646Z,76.30
2018-04-12T06:09:59.193Z,75.90
2018-04-12T06:12:26.716Z,76.30
2018-04-12T06:14:54.265Z,75.70
2018-04-12T06:17:21.856Z,74.70
2018-04-12T06:19:49.404Z,73.80
2018-04-12T06:22:17.691Z,74.20
2018-04-12T06:24:45.243Z,74.00
2018-04-12T06:27:13.556Z,71.20
2018-04-12T06:29:41.112Z,71.10
2018-04-12T06:32:08.656Z,71.60
2018-04-12T06:34:36.209Z,71.20
2018-04-12T06:37:03.735Z,71.90
2018-04-12T06:39:31.267Z,70.10
2018-04-12T06:41:58.816Z,70.10
2018-04-12T06:44:26.369Z,70.20
2018-04-12T06:46:53.904Z,70.10
2018-04-12T06:49:21.472Z,69.90
2018-04-12T06:51:48.995Z,69.70
2018-04-12T06:54:16.562Z,69.60
2018-04-12T06:56:44.095Z,69.60
2018-04-12T06:59:11.644Z,69.00
2018-04-12T07:01:39.182Z,69.20
2018-04-12T07:04:06.748Z,68.90
2018-04-12T07:06:34.287Z,69.50
2018-04-12T07:09:01.823Z,69.10
2018-04-12T07:11:29.376Z,69.20
2018-04-12T07:13:56.911Z,68.40
2018-04-12T07:16:25.241Z,67.20
2018-04-12T07:18:52.772Z,67.10
2018-04-12T07:21:20.311Z,67.00
2018-04-12T07:23:48.616Z,57.80
2018-04-12T07:26:16.157Z,57.70
2018-04-12T07:28:43.676Z,54.50
2018-04-12T07:31:11.229Z,51.60
2018-04-12T07:33:38.761Z,50.30
2018-04-12T07:36:06.310Z,53.10
2018-04-12T07:38:33.856Z,48.40
2018-04-12T07:41:01.410Z,46.70
2018-04-12T07:43:28.948Z,46.40
2018-04-12T07:45:56.516Z,46.70
2018-04-12T07:48:24.040Z,48.80
2018-04-12T07:50:51.575Z,51.50
2018-04-12T07:53:19.095Z,52.80
2018-04-12T07:55:46.669Z,53.80
2018-04-12T07:58:14.199Z,56.20
2018-04-12T08:00:41.762Z,57.30
2018-04-12T08:03:09.292Z,57.80
2018-04-12T08:05:36.860Z,57.50
2018-04-12T08:08:05.044Z,57.80
2018-04-12T08:10:32.533Z,55.10
2018-04-12T08:13:00.058Z,51.20
2018-04-12T08:15:28.344Z,47.50
2018-04-12T08:17:55.896Z,47.40
2018-04-12T08:20:23.428Z,46.80
2018-04-12T08:22:50.977Z,48.60
2018-04-12T08:25:18.500Z,49.80
2018-04-12T08:27:46.057Z,49.30
2018-04-12T08:30:13.608Z,50.90
2018-04-12T08:32:41.184Z,52.80
2018-04-12T08:35:08.715Z,54.30
2018-04-12T08:37:36.264Z,53.90
2018-04-12T08:40:03.792Z,51.20
2018-04-12T08:42:32.069Z,51.30
2018-04-12T08:45:00.367Z,47.30
2018-04-12T08:47:27.903Z,47.30
2018-04-12T08:49:55.424Z,45.30
2018-04-12T08:52:23.299Z,42.70
2018-04-12T08:54:50.844Z,43.20
2018-04-12T08:57:18.400Z,42.70
2018-04-12T08:59:45.929Z,43.50
2018-04-12T09:02:13.481Z,41.80
2018-04-12T09:04:41.008Z,41.30
2018-04-12T09:07:08.547Z,41.20
2018-04-12T09:09:36.079Z,40.00
2018-04-12T09:12:03.633Z,41.50
2018-04-12T09:14:31.146Z,41.00
2018-04-12T09:16:58.695Z,39.60
2018-04-12T09:19:26.231Z,40.00
2018-04-12T09:21:53.768Z,40.80
2018-04-12T09:24:21.289Z,40.40
2018-04-12T09:26:48.852Z,42.80
2018-04-12T09:29:16.400Z,43.10
2018-04-12T09:31:44.697Z,40.80
2018-04-12T09:34:13.374Z,40.80
2018-04-12T09:36:40.903Z,41.00
2018-04-12T09:39:08.453Z,40.00
2018-04-12T09:41:35.975Z,38.90
2018-04-12T09:44:03.523Z,36.70
2018-04-12T09:46:31.819Z,37.10
2018-04-12T09:48:59.362Z,37.10
2018-04-12T09:51:26.886Z,38.00
2018-04-12T09:53:55.219Z,41.70
2018-04-12T09:56:22.758Z,41.60
2018-04-12T09:58:50.301Z,42.40
2018-04-12T10:01:17.876Z,42.30
2018-04-12T10:03:45.416Z,41.10
2018-04-12T10:06:22.911Z,43.50
2018-04-12T10:08:56.946Z,43.10
2018-04-12T10:11:24.454Z,43.10
2018-04-12T10:13:52.011Z,43.20
2018-04-12T10:16:19.540Z,42.20
2018-04-12T10:18:47.101Z,42.00
2018-04-12T10:21:14.622Z,43.20
2018-04-12T10:23:42.162Z,43.40
2018-04-12T10:26:09.785Z,43.50
2018-04-12T10:28:37.381Z,42.10
2018-04-12T10:31:04.943Z,43.70
2018-04-12T10:33:32.486Z,43.40
2018-04-12T10:36:00.011Z,42.70
2018-04-12T10:38:27.556Z,42.40
2018-04-12T10:40:55.083Z,43.40
2018-04-12T10:43:22.621Z,42.10
2018-04-12T10:45:50.142Z,40.60
2018-04-12T10:48:17.720Z,41.20
2018-04-12T10:50:46.003Z,39.20
2018-04-12T10:53:13.522Z,39.10
2018-04-12T10:55:41.063Z,39.30
2018-04-12T10:58:08.583Z,37.60
2018-04-12T11:00:36.120Z,36.50
2018-04-12T11:03:03.644Z,37.60
2018-04-12T11:05:32.120Z,37.10
2018-04-12T11:07:59.651Z,36.60
2018-04-12T11:10:27.210Z,37.60
2018-04-12T11:12:54.756Z,37.80
2018-04-12T11:15:22.322Z,37.20
2018-04-12T11:17:49.919Z,38.30
2018-04-12T11:20:17.443Z,38.40
2018-04-12T11:22:44.972Z,37.90
2018-04-12T11:25:12.526Z,37.40
2018-04-12T11:27:40.044Z,38.80
2018-04-12T11:30:07.587Z,38.60
2018-04-12T11:32:35.106Z,38.00
2018-04-12T11:35:02.670Z,37.40
2018-04-12T11:37:30.609Z,37.40
2018-04-12T11:39:58.925Z,37.10
2018-04-12T11:42:26.457Z,37.10
2018-04-12T11:44:54.778Z,37.60
2018-04-12T11:47:22.312Z,37.50
2018-04-12T11:49:49.875Z,37.10
2018-04-12T11:52:18.179Z,37.00
2018-04-12T11:54:45.727Z,37.00
2018-04-12T11:57:13.260Z,36.20
2018-04-12T11:59:40.804Z,35.40
2018-04-12T12:02:09.088Z,36.60
2018-04-12T12:04:36.635Z,36.60
2018-04-12T12:07:04.173Z,37.40
2018-04-12T12:09:31.691Z,37.10
2018-04-12T12:11:59.267Z,37.10
2018-04-12T12:14:26.799Z,37.10
2018-04-12T12:16:54.366Z,36.40
2018-04-12T12:19:21.913Z,37.00
2018-04-12T12:21:49.459Z,36.40
2018-04-12T12:24:16.993Z,35.70
2018-04-12T12:26:45.314Z,35.70
2018-04-12T12:29:12.835Z,35.70
2018-04-12T12:31:41.132Z,34.50
2018-04-12T12:34:08.656Z,34.50
2018-04-12T12:36:36.211Z,34.00
2018-04-12T12:39:03.737Z,33.10
2018-04-12T12:41:31.275Z,34.60
2018-04-12T12:43:58.988Z,33.50
2018-04-12T12:46:26.628Z,34.10
2018-04-12T12:48:54.183Z,35.30
2018-04-12T12:51:21.828Z,35.40
2018-04-12T12:53:49.358Z,34.40
2018-04-12T12:56:16.916Z,32.80
2018-04-12T12:58:44.442Z,33.60
2018-04-12T13:01:11.977Z,33.60
2018-04-12T13:03:39.555Z,33.40
2018-04-12T13:06:07.114Z,34.10
2018-04-12T13:08:34.705Z,34.30
2018-04-12T13:11:02.402Z,32.30
2018-04-12T13:13:30.172Z,31.80
2018-04-12T13:15:57.804Z,32.00
2018-04-12T13:18:25.336Z,33.10
2018-04-12T13:20:52.853Z,31.90
2018-04-12T13:23:21.152Z,32.80
2018-04-12T13:25:48.659Z,32.70
2018-04-12T13:28:16.233Z,32.70
2018-04-12T13:30:43.797Z,31.60
2018-04-12T13:33:11.377Z,31.70
2018-04-12T13:35:39.096Z,31.60
2018-04-12T13:38:06.871Z,31.10
2018-04-12T13:40:34.451Z,33.30
2018-04-12T13:43:01.987Z,32.40
2018-04-12T13:45:31.200Z,33.40
2018-04-12T13:47:58.946Z,32.60
2018-04-12T13:50:26.612Z,33.00
2018-04-12T13:52:54.156Z,32.80
2018-04-12T13:55:21.729Z,33.20
2018-04-12T13:57:49.256Z,33.30
2018-04-12T14:00:16.796Z,32.40
2018-04-12T14:02:45.097Z,33.00
2018-04-12T14:05:12.648Z,33.00
2018-04-12T14:07:40.181Z,33.10
2018-04-12T14:10:07.777Z,33.60
2018-04-12T14:12:35.305Z,34.10
2018-04-12T14:15:03.617Z,33.70
2018-04-12T14:17:31.171Z,33.70
2018-04-12T14:19:58.771Z,34.00
2018-04-12T14:22:26.342Z,33.80
2018-04-12T14:24:54.652Z,34.80
2018-04-12T14:27:22.165Z,34.80
2018-04-12T14:29:49.761Z,33.40
2018-04-12T14:32:17.264Z,34.30
2018-04-12T14:34:44.805Z,33.40
2018-04-12T14:37:12.361Z,35.20
2018-04-12T14:39:39.877Z,35.10
2018-04-12T14:42:07.415Z,35.00
2018-04-12T14:44:34.989Z,34.10
2018-04-12T14:47:02.556Z,34.40
2018-04-12T14:49:30.094Z,35.00
2018-04-12T14:51:57.627Z,35.40
2018-04-12T14:54:25.172Z,34.80
2018-04-12T14:56:53.501Z,35.70
2018-04-12T14:59:21.779Z,34.80
2018-04-12T15:01:49.315Z,34.80
2018-04-12T15:04:16.836Z,34.20
2018-04-12T15:06:44.376Z,34.10
2018-04-12T15:09:11.894Z,33.60
2018-04-12T15:11:39.431Z,34.80
2018-04-12T15:14:06.973Z,34.40
2018-04-12T15:16:34.517Z,34.20
2018-04-12T15:19:02.032Z,33.60
2018-04-12T15:21:29.568Z,34.60
2018-04-12T15:23:57.101Z,35.30
2018-04-12T15:26:24.668Z,34.70
2018-04-12T15:28:52.230Z,35.00
2018-04-12T15:31:19.767Z,35.50
2018-04-12T15:33:47.310Z,35.80
2018-04-12T15:36:14.905Z,35.10
2018-04-12T15:38:42.429Z,36.50
2018-04-12T15:41:09.969Z,35.50
2018-04-12T15:43:38.252Z,35.80
2018-04-12T15:46:05.808Z,35.90
2018-04-12T15:48:33.336Z,35.30
2018-04-12T15:51:01.000Z,35.50
2018-04-12T15:53:28.567Z,37.20
2018-04-12T15:55:56.097Z,36.20
2018-04-12T15:58:23.643Z,36.10
2018-04-12T16:00:51.158Z,35.90
2018-04-12T16:03:18.716Z,36.40
2018-04-12T16:05:46.244Z,36.10
2018-04-12T16:08:13.789Z,36.40
2018-04-12T16:10:41.320Z,36.80
2018-04-12T16:13:08.861Z,35.60
2018-04-12T16:15:36.410Z,37.00
2018-04-12T16:18:04.124Z,37.20
2018-04-12T16:20:31.734Z,36.10
2018-04-12T16:22:59.301Z,36.90
2018-04-12T16:25:26.840Z,37.30
2018-04-12T16:27:54.375Z,37.40
2018-04-12T16:30:21.893Z,37.60
2018-04-12T16:32:49.432Z,37.80
2018-04-12T16:35:16.949Z,37.40
2018-04-12T16:37:45.253Z,38.10
2018-04-12T16:40:12.771Z,38.10
2018-04-12T16:42:40.303Z,38.40
2018-04-12T16:45:07.860Z,38.80
2018-04-12T16:47:35.421Z,40.40
2018-04-12T16:50:03.065Z,42.00
2018-04-12T16:52:30.649Z,42.90
2018-04-12T16:54:58.211Z,43.70
2018-04-12T16:57:25.737Z,44.60
2018-04-12T16:59:53.309Z,44.70
2018-04-12T17:02:21.616Z,45.50
2018-04-12T17:04:49.152Z,45.50
2018-04-12T17:07:16.689Z,46.40
2018-04-12T17:09:44.264Z,46.70
2018-04-12T17:12:11.809Z,47.20
2018-04-12T17:14:39.426Z,47.60
2018-04-12T17:17:06.961Z,47.90
2018-04-12T17:19:34.503Z,48.20
2018-04-12T17:22:02.042Z,48.40
2018-04-12T17:24:29.580Z,49.00
2018-04-12T17:26:57.107Z,49.30
2018-04-12T17:29:24.663Z,49.70
2018-04-12T17:31:52.205Z,50.10
2018-04-12T17:34:19.760Z,50.40
2018-04-12T17:36:47.301Z,50.70
2018-04-12T17:39:14.859Z,51.10
2018-04-12T17:41:42.387Z,51.50
2018-04-12T17:44:09.978Z,51.70
2018-04-12T17:46:37.536Z,51.60
2018-04-12T17:49:05.246Z,51.50
2018-04-12T17:51:33.565Z,52.60
2018-04-12T17:54:01.856Z,52.60
2018-04-12T17:56:29.432Z,52.60
2018-04-12T17:58:56.956Z,53.00
2018-04-12T18:01:24.575Z,53.00
2018-04-12T18:03:52.095Z,53.40
2018-04-12T18:06:19.634Z,53.40
2018-04-12T18:08:47.249Z,53.70
2018-04-12T18:11:14.793Z,53.80
2018-04-12T18:13:42.323Z,54.10
2018-04-12T18:16:09.865Z,54.20
2018-04-12T18:18:37.379Z,54.80
2018-04-12T18:21:04.930Z,54.10
2018-04-12T18:23:33.227Z,54.60
2018-04-12T18:26:00.771Z,54.40
2018-04-12T18:28:29.075Z,55.00
2018-04-12T18:30:57.436Z,55.30
2018-04-12T18:33:24.958Z,55.30
2018-04-12T18:35:52.499Z,55.60
2018-04-12T18:38:20.037Z,55.50
2018-04-12T18:40:47.591Z,55.60
2018-04-12T18:43:15.304Z,55.90
2018-04-12T18:45:42.893Z,56.20
2018-04-12T18:48:10.529Z,56.20
2018-04-12T18:50:38.101Z,56.10
2018-04-12T18:53:06.423Z,56.50
2018-04-12T18:55:34.148Z,56.50
2018-04-12T18:58:01.676Z,56.80
2018-04-12T19:00:29.296Z,57.10
2018-04-12T19:02:56.841Z,57.00
2018-04-12T19:05:24.551Z,57.20
2018-04-12T19:07:52.096Z,57.60
2018-04-12T19:10:19.649Z,57.80
2018-04-12T19:12:47.192Z,57.90
2018-04-12T19:15:14.727Z,58.10
2018-04-12T19:17:42.280Z,58.20
2018-04-12T19:20:09.817Z,58.40
2018-04-12T19:22:37.369Z,58.30
2018-04-12T19:25:05.697Z,58.80
2018-04-12T19:27:33.272Z,58.70
2018-04-12T19:30:00.793Z,58.80
2018-04-12T19:32:28.342Z,59.00
2018-04-12T19:34:55.903Z,58.80
2018-04-12T19:37:23.474Z,59.00
2018-04-12T19:39:51.046Z,59.10
2018-04-12T19:42:18.596Z,59.10
2018-04-12T19:44:46.307Z,59.20
2018-04-12T19:47:13.847Z,59.50
2018-04-12T19:49:41.373Z,59.70
2018-04-12T19:52:08.917Z,59.90
2018-04-12T19:54:36.439Z,60.00
2018-04-12T19:57:03.991Z,60.00
2018-04-12T19:59:31.520Z,60.00
2018-04-12T20:01:59.082Z,60.00
2018-04-12T20:04:26.639Z,61.00
2018-04-12T20:06:54.159Z,60.20
2018-04-12T20:09:21.702Z,60.20
2018-04-12T20:11:50.168Z,60.50
2018-04-12T20:14:17.708Z,60.40
2018-04-12T20:16:45.248Z,60.70
2018-04-12T20:19:12.789Z,60.70
2018-04-12T20:21:40.333Z,60.90
2018-04-12T20:24:07.883Z,61.00
2018-04-12T20:26:35.424Z,61.10
2018-04-12T20:29:02.972Z,61.10
2018-04-12T20:31:30.491Z,61.40
2018-04-12T20:33:58.088Z,61.50
2018-04-12T20:36:25.600Z,61.60
2018-04-12T20:38:53.177Z,61.50
2018-04-12T20:41:20.708Z,61.60
2018-04-12T20:43:48.247Z,61.80
2018-04-12T20:46:15.792Z,62.10
2018-04-12T20:48:43.354Z,62.30
2018-04-12T20:51:11.648Z,62.70
2018-04-12T20:53:39.240Z,62.70
2018-04-12T20:56:06.782Z,62.70
2018-04-12T20:58:34.330Z,62.60
2018-04-12T21:01:01.864Z,63.00
2018-04-12T21:03:30.197Z,63.40
2018-04-12T21:05:57.737Z,63.30
2018-04-12T21:08:25.259Z,63.50
2018-04-12T21:10:52.817Z,63.70
2018-04-12T21:13:21.441Z,63.90
2018-04-12T21:15:48.995Z,63.90
2018-04-12T21:18:17.288Z,64.20
2018-04-12T21:20:44.841Z,64.20
2018-04-12T21:23:12.368Z,64.30
2018-04-12T21:25:39.924Z,64.60
2018-04-12T21:28:07.449Z,65.00
2018-04-12T21:30:35.001Z,65.10
2018-04-12T21:33:02.555Z,65.10
2018-04-12T21:35:30.095Z,65.00
2018-04-12T21:37:57.627Z,65.20
2018-04-12T21:40:25.976Z,65.40
2018-04-12T21:42:53.499Z,65.50
2018-04-12T21:45:21.052Z,65.50
2018-04-12T21:47:48.583Z,65.80
2018-04-12T21:50:16.135Z,65.90
2018-04-12T21:52:43.660Z,66.20
2018-04-12T21:55:11.978Z,66.70
2018-04-12T21:57:39.508Z,66.70
2018-04-12T22:00:07.053Z,66.80
2018-04-12T22:02:35.371Z,67.10
2018-04-12T22:05:03.326Z,67.20
2018-04-12T22:07:30.848Z,67.50
2018-04-12T22:09:59.172Z,67.50
2018-04-12T22:12:27.469Z,67.50
2018-04-12T22:14:55.022Z,67.40
2018-04-12T22:17:22.713Z,67.40
2018-04-12T22:19:50.244Z,67.50
2018-04-12T22:22:17.804Z,67.40
2018-04-12T22:24:45.330Z,67.50
2018-04-12T22:27:12.875Z,67.90
2018-04-12T22:29:40.427Z,67.60
2018-04-12T22:32:07.976Z,67.70
2018-04-12T22:34:35.507Z,67.50
2018-04-12T22:37:03.068Z,67.60
2018-04-12T22:39:30.605Z,67.70
2018-04-12T22:41:58.155Z,67.50
2018-04-12T22:44:25.670Z,67.50
2018-04-12T22:46:53.213Z,67.70
2018-04-12T22:49:21.500Z,67.90
2018-04-12T22:51:49.072Z,67.80
2018-04-12T22:54:16.607Z,67.90
2018-04-12T22:56:44.182Z,68.00
2018-04-12T22:59:11.710Z,67.90
2018-04-12T23:01:39.269Z,68.00
2018-04-12T23:04:06.815Z,68.90
2018-04-12T23:06:34.373Z,68.10
2018-04-12T23:09:02.698Z,68.10
2018-04-12T23:11:30.240Z,68.10
2018-04-12T23:13:58.528Z,68.40
2018-04-12T23:16:26.076Z,68.40
2018-04-12T23:18:53.636Z,68.40
2018-04-12T23:21:21.182Z,68.00
2018-04-12T23:23:49.475Z,67.80
2018-04-12T23:26:17.077Z,67.80
2018-04-12T23:28:44.608Z,67.80
2018-04-12T23:31:12.153Z,67.70
2018-04-12T23:33:39.704Z,67.50
2018-04-12T23:36:07.232Z,67.40
2018-04-12T23:38:34.773Z,67.40
2018-04-12T23:41:02.306Z,67.80
2018-04-12T23:43:29.859Z,67.50
2018-04-12T23:45:57.399Z,67.40
2018-04-12T23:48:24.935Z,67.50
2018-04-12T23:50:53.249Z,67.30
2018-04-12T23:53:20.800Z,67.40
2018-04-12T23:55:48.327Z,67.10
2018-04-12T23:58:15.872Z,67.20
